PWSweather.com
Personal Weather Stations
Station Observations

OlomoucCZ

Lat: 49.5936202181, Lon: 17.2276005149

Elevation: 752

Station Type: Davis Vantage Pro 2 Activ

http://infopocasi-olomouc.cz

High Low Average
Temperature 22.1°F-5.5°C 17.9°F-7.8°C 20.0°F-6.7°C
Dew Point 21.1°F-6.1°C 16.5°F-8.6°C 18.8°F-7.3°C
Winds 3.5 mph 5.6 kmh Calm Calm 1.0 mph SW1.6 kmh SW
Wind Gusts 4.6 mph7.4 kmh 1.2 mph1.9 kmh 2.0 mph3.2 kmh
Humidity 96% 94% 95%
Pressure 30.11 in1019.6 mb 29.77 in1008.1 mb -
Precipitation 0.00 in0.0 mm - -
Hour Temp Dew Point Humidity Winds Wind Gusts Pressure Precip Precip Rate Daily Precip Total
12:00 AM 19.6°F-6.9°C 18.2°F-7.7°C 94% 2.3 mph SE3.7 kmh SE 3.5 mph5.6 kmh 30.11 in1019.6 mb - 0.00 in0.0 mm 0.00 in0.0 mm
12:30 AM 17.9°F-7.8°C 16.5°F-8.6°C 94% 1.2 mph E1.9 kmh E 3.5 mph5.6 kmh 30.11 in1019.6 mb - 0.00 in0.0 mm 0.00 in0.0 mm
01:00 AM 19.0°F-7.2°C 17.6°F-8.0°C 94% 3.5 mph SE5.6 kmh SE 4.6 mph7.4 kmh 30.10 in1019.3 mb - 0.00 in0.0 mm 0.00 in0.0 mm
01:30 AM 18.8°F-7.3°C 17.4°F-8.1°C 94% 2.3 mph E3.7 kmh E 2.3 mph3.7 kmh 30.09 in1019.0 mb - 0.00 in0.0 mm 0.00 in0.0 mm
02:00 AM 18.9°F-7.3°C 17.7°F-7.9°C 95% 2.3 mph E3.7 kmh E 3.5 mph5.6 kmh 30.09 in1019.0 mb - 0.00 in0.0 mm 0.00 in0.0 mm
02:30 AM 18.9°F-7.3°C 17.7°F-7.9°C 95% Calm Calm 2.3 mph3.7 kmh 30.09 in1019.0 mb - 0.00 in0.0 mm 0.00 in0.0 mm
03:00 AM 19.4°F-7.0°C 18.2°F-7.7°C 95% Calm Calm 2.3 mph3.7 kmh 30.07 in1018.3 mb - 0.00 in0.0 mm 0.00 in0.0 mm
03:30 AM 19.5°F-6.9°C 18.3°F-7.6°C 95% 1.2 mph N1.9 kmh N 2.3 mph3.7 kmh 30.06 in1017.9 mb - 0.00 in0.0 mm 0.00 in0.0 mm
04:00 AM 19.4°F-7.0°C 18.2°F-7.7°C 95% Calm Calm 1.2 mph1.9 kmh 30.06 in1017.9 mb - 0.00 in0.0 mm 0.00 in0.0 mm
04:30 AM 19.5°F-6.9°C 18.3°F-7.6°C 95% 2.3 mph W3.7 kmh W 2.3 mph3.7 kmh 30.06 in1017.9 mb - 0.00 in0.0 mm 0.00 in0.0 mm
05:00 AM 19.4°F-7.0°C 18.2°F-7.7°C 95% 1.2 mph WNW1.9 kmh WNW 1.2 mph1.9 kmh 30.05 in1017.6 mb - 0.00 in0.0 mm 0.00 in0.0 mm
05:30 AM 19.3°F-7.1°C 18.1°F-7.7°C 95% 1.2 mph SSW1.9 kmh SSW 2.3 mph3.7 kmh 30.04 in1017.3 mb - 0.00 in0.0 mm 0.00 in0.0 mm
06:00 AM 19.1°F-7.2°C 17.9°F-7.8°C 95% 1.2 mph SE1.9 kmh SE 2.3 mph3.7 kmh 30.04 in1017.3 mb - 0.00 in0.0 mm 0.00 in0.0 mm
06:30 AM 19.1°F-7.2°C 17.9°F-7.8°C 95% Calm Calm 1.2 mph1.9 kmh 30.03 in1016.9 mb - 0.00 in0.0 mm 0.00 in0.0 mm
07:00 AM 19.5°F-6.9°C 18.3°F-7.6°C 95% 2.3 mph S3.7 kmh S 2.3 mph3.7 kmh 30.02 in1016.6 mb - 0.00 in0.0 mm 0.00 in0.0 mm
07:30 AM 19.3°F-7.1°C 18.1°F-7.7°C 95% Calm Calm 1.2 mph1.9 kmh 30.02 in1016.6 mb - 0.00 in0.0 mm 0.00 in0.0 mm
08:00 AM 19.5°F-6.9°C 18.3°F-7.6°C 95% 2.3 mph SE3.7 kmh SE 3.5 mph5.6 kmh 30.02 in1016.6 mb - 0.00 in0.0 mm 0.00 in0.0 mm
08:30 AM 19.5°F-6.9°C 18.3°F-7.6°C 95% Calm Calm 2.3 mph3.7 kmh 30.02 in1016.6 mb - 0.00 in0.0 mm 0.00 in0.0 mm
09:00 AM 19.5°F-6.9°C 18.3°F-7.6°C 95% 1.2 mph WSW1.9 kmh WSW 3.5 mph5.6 kmh 30.02 in1016.6 mb - 0.00 in0.0 mm 0.00 in0.0 mm
09:30 AM 19.6°F-6.9°C 18.4°F-7.6°C 95% 1.2 mph SW1.9 kmh SW 1.2 mph1.9 kmh 30.01 in1016.3 mb - 0.00 in0.0 mm 0.00 in0.0 mm
10:00 AM 20.1°F-6.6°C 18.9°F-7.3°C 95% 1.2 mph N1.9 kmh N 2.3 mph3.7 kmh 30.01 in1016.3 mb - 0.00 in0.0 mm 0.00 in0.0 mm
10:30 AM 20.4°F-6.4°C 19.2°F-7.1°C 95% 1.2 mph NNW1.9 kmh NNW 2.3 mph3.7 kmh 30.01 in1016.3 mb - 0.00 in0.0 mm 0.00 in0.0 mm
11:00 AM 20.6°F-6.3°C 19.4°F-7.0°C 95% 1.2 mph WNW1.9 kmh WNW 2.3 mph3.7 kmh 30.00 in1015.9 mb - 0.00 in0.0 mm 0.00 in0.0 mm
11:30 AM 20.9°F-6.2°C 19.6°F-6.9°C 95% Calm Calm 1.2 mph1.9 kmh 29.99 in1015.6 mb - 0.00 in0.0 mm 0.00 in0.0 mm
12:00 PM 21.1°F-6.1°C 20.1°F-6.6°C 96% 1.2 mph WSW1.9 kmh WSW 2.3 mph3.7 kmh 29.98 in1015.2 mb - 0.00 in0.0 mm 0.00 in0.0 mm
12:30 PM 21.3°F-5.9°C 20.3°F-6.5°C 96% 1.2 mph WNW1.9 kmh WNW 1.2 mph1.9 kmh 29.97 in1014.9 mb - 0.00 in0.0 mm 0.00 in0.0 mm
01:00 PM 21.1°F-6.1°C 20.1°F-6.6°C 96% 1.2 mph NW1.9 kmh NW 2.3 mph3.7 kmh 29.95 in1014.2 mb - 0.00 in0.0 mm 0.00 in0.0 mm
01:30 PM 21.5°F-5.8°C 20.3°F-6.5°C 95% 1.2 mph NW1.9 kmh NW 1.2 mph1.9 kmh 29.94 in1013.9 mb - 0.00 in0.0 mm 0.00 in0.0 mm
02:00 PM 21.8°F-5.7°C 20.8°F-6.2°C 96% 1.2 mph N1.9 kmh N 1.2 mph1.9 kmh 29.93 in1013.5 mb - 0.00 in0.0 mm 0.00 in0.0 mm
02:30 PM 21.8°F-5.7°C 20.8°F-6.2°C 96% 1.2 mph NNW1.9 kmh NNW 2.3 mph3.7 kmh 29.92 in1013.2 mb - 0.00 in0.0 mm 0.00 in0.0 mm
03:00 PM 22.0°F-5.6°C 21.0°F-6.1°C 96% 1.2 mph NNW1.9 kmh NNW 2.3 mph3.7 kmh 29.91 in1012.9 mb - 0.00 in0.0 mm 0.00 in0.0 mm
03:30 PM 22.1°F-5.5°C 21.1°F-6.1°C 96% 1.2 mph WNW1.9 kmh WNW 1.2 mph1.9 kmh 29.90 in1012.5 mb - 0.00 in0.0 mm 0.00 in0.0 mm
04:00 PM 21.9°F-5.6°C 20.9°F-6.2°C 96% 2.3 mph NW3.7 kmh NW 3.5 mph5.6 kmh 29.89 in1012.2 mb - 0.00 in0.0 mm 0.00 in0.0 mm
11:30 PM 19.7°F-6.8°C 18.5°F-7.5°C 95% Calm Calm 1.2 mph1.9 kmh 29.77 in1008.1 mb - 0.00 in0.0 mm 0.00 in0.0 mm